Time;durP1;ratioP1;P1;durP2;ratioP2;P2;SDS_P1;SDS_P2;PMS_P1;PMS_P2;Temp;Humidity;BMP_temperature;BMP_pressure;BME280_temperature;BME280_humidity;BME280_pressure;Samples;Min_cycle;Max_cycle;Signal;HPM_P1;HPM_P2
2021/07/20 00:01:16;;;;;;;14.20;9.13;;;16.40;98.10;;;;;;4997947;28;20033;-45
2021/07/20 00:03:42;;;;;;;13.13;8.57;;;16.30;98.20;;;;;;5013018;28;20400;-46
2021/07/20 00:06:07;;;;;;;14.95;9.38;;;16.30;98.30;;;;;;5024885;28;20477;-46
2021/07/20 00:08:33;;;;;;;12.45;8.35;;;16.30;98.40;;;;;;5011855;28;20018;-45
2021/07/20 00:11:02;;;;;;;12.57;8.90;;;16.30;98.50;;;;;;5010145;28;20098;-46
2021/07/20 00:13:27;;;;;;;13.00;9.30;;;16.20;98.60;;;;;;5017848;28;20084;-43
2021/07/20 00:15:58;;;;;;;11.88;8.35;;;16.20;98.60;;;;;;5008837;28;20029;-45
2021/07/20 00:18:30;;;;;;;14.10;10.10;;;16.20;98.70;;;;;;5019336;28;20101;-45
2021/07/20 00:20:56;;;;;;;14.80;9.98;;;16.20;98.80;;;;;;5010386;28;20021;-45
2021/07/20 00:23:22;;;;;;;12.70;9.43;;;16.10;98.90;;;;;;5023993;28;20018;-45
2021/07/20 00:25:49;;;;;;;12.68;9.18;;;16.10;98.90;;;;;;5013050;28;20555;-45
2021/07/20 00:28:16;;;;;;;13.93;9.30;;;16.10;99.00;;;;;;5023179;28;20013;-45
2021/07/20 00:30:42;;;;;;;13.35;9.45;;;16.10;99.30;;;;;;5012473;28;20060;-45
2021/07/20 00:33:10;;;;;;;13.82;8.95;;;16.10;99.10;;;;;;5024747;28;20041;-45
2021/07/20 00:35:36;;;;;;;13.50;9.63;;;16.10;99.20;;;;;;5011145;28;20117;-46
2021/07/20 00:38:02;;;;;;;13.10;8.80;;;16.00;99.20;;;;;;5022371;28;20124;-43
2021/07/20 00:40:28;;;;;;;15.85;10.10;;;15.90;99.30;;;;;;5014716;28;20716;-46
2021/07/20 00:42:54;;;;;;;15.82;10.13;;;15.90;99.30;;;;;;5019260;28;20063;-45
2021/07/20 00:45:20;;;;;;;15.98;10.38;;;15.80;99.40;;;;;;5017412;28;20041;-47
2021/07/20 00:47:47;;;;;;;15.23;9.38;;;15.80;99.50;;;;;;5016204;28;20013;-46
2021/07/20 00:50:16;;;;;;;14.02;9.65;;;15.80;99.60;;;;;;5018294;28;20025;-45
2021/07/20 00:52:42;;;;;;;13.27;9.48;;;15.80;99.70;;;;;;5014143;28;20014;-46
2021/07/20 00:55:09;;;;;;;15.25;9.05;;;15.80;99.70;;;;;;5022264;28;20021;-45
2021/07/20 00:57:40;;;;;;;15.30;10.25;;;15.70;99.80;;;;;;5012629;28;20026;-45
2021/07/20 01:00:08;;;;;;;15.07;9.60;;;15.70;99.80;;;;;;5022577;28;20018;-45
2021/07/20 01:02:34;;;;;;;15.32;9.90;;;15.60;99.80;;;;;;5012296;28;20522;-41
2021/07/20 01:04:59;;;;;;;14.02;10.13;;;15.60;99.90;;;;;;5022521;28;20120;-45
2021/07/20 01:07:26;;;;;;;16.13;9.85;;;15.60;99.90;;;;;;5012014;28;20045;-44
2021/07/20 01:09:58;;;;;;;14.02;9.60;;;15.50;99.90;;;;;;5023646;28;20034;-45
2021/07/20 01:12:25;;;;;;;14.13;10.25;;;15.50;99.90;;;;;;5010194;28;20037;-41
2021/07/20 01:14:52;;;;;;;15.48;10.55;;;15.50;99.90;;;;;;5024433;28;20032;-46
2021/07/20 01:17:20;;;;;;;17.17;10.25;;;15.50;99.90;;;;;;5011349;28;20025;-45
2021/07/20 01:19:55;;;;;;;16.08;10.25;;;15.40;99.90;;;;;;5023992;28;20036;-44
2021/07/20 01:22:27;;;;;;;14.82;10.32;;;15.40;99.90;;;;;;5012405;28;20018;-43
2021/07/20 01:24:53;;;;;;;16.67;10.57;;;15.40;99.90;;;;;;5023645;28;20038;-45
2021/07/20 01:27:18;;;;;;;15.80;9.90;;;15.40;99.90;;;;;;5012691;28;20022;-43
2021/07/20 01:29:46;;;;;;;16.90;9.85;;;15.30;99.90;;;;;;5020366;28;20026;-45
2021/07/20 01:32:13;;;;;;;14.77;10.18;;;15.30;99.90;;;;;;5013896;28;20058;-44
2021/07/20 01:34:40;;;;;;;16.40;10.82;;;15.30;99.90;;;;;;5018976;28;20028;-46
2021/07/20 01:37:06;;;;;;;14.80;9.82;;;15.20;99.90;;;;;;5016713;28;20060;-45
2021/07/20 01:39:33;;;;;;;15.25;9.73;;;15.20;99.90;;;;;;5015612;28;20014;-46
2021/07/20 01:42:00;;;;;;;14.77;10.20;;;15.20;99.90;;;;;;5018272;28;20030;-46
2021/07/20 01:44:27;;;;;;;14.57;10.02;;;15.20;99.90;;;;;;5014131;28;20113;-46
2021/07/20 01:46:55;;;;;;;16.27;10.40;;;15.20;99.90;;;;;;5020477;28;20465;-45
2021/07/20 01:49:21;;;;;;;16.20;10.48;;;15.20;99.90;;;;;;5012528;28;20057;-46
2021/07/20 01:51:49;;;;;;;17.08;10.23;;;15.10;99.90;;;;;;5022869;28;20028;-45
2021/07/20 01:54:15;;;;;;;15.63;10.55;;;15.10;99.90;;;;;;5012573;28;20065;-45
2021/07/20 01:56:41;;;;;;;16.08;10.88;;;15.10;99.90;;;;;;5022025;28;20398;-45
2021/07/20 01:59:10;;;;;;;16.52;10.82;;;15.10;99.90;;;;;;5011176;28;20018;-45
2021/07/20 02:01:46;;;;;;;17.35;10.98;;;15.10;99.90;;;;;;5017084;28;20017;-46
2021/07/20 02:09:32;;;;;;;16.42;11.18;;;15.00;99.90;;;;;;5019263;28;20075;-47
2021/07/20 02:12:00;;;;;;;18.95;10.98;;;15.00;99.90;;;;;;5017487;28;20025;-46
2021/07/20 02:14:29;;;;;;;19.75;10.93;;;15.00;99.90;;;;;;5029938;28;20869;-46
2021/07/20 02:16:58;;;;;;;17.38;10.38;;;15.00;99.90;;;;;;5017919;28;20053;-46
2021/07/20 02:19:35;;;;;;;14.43;9.95;;;15.00;99.90;;;;;;5030657;28;20013;-45
2021/07/20 02:22:03;;;;;;;17.70;11.02;;;15.00;99.90;;;;;;5017241;28;20025;-43
2021/07/20 02:24:31;;;;;;;14.75;10.35;;;15.00;99.90;;;;;;5029695;28;20080;-44
2021/07/20 02:27:00;;;;;;;16.60;10.73;;;15.00;99.90;;;;;;5018642;28;20018;-45
2021/07/20 02:29:27;;;;;;;15.90;10.05;;;15.00;99.90;;;;;;4989732;28;20080;-45
2021/07/20 02:31:55;;;;;;;14.93;10.05;;;15.00;99.90;;;;;;5014997;28;20041;-45
2021/07/20 02:34:22;;;;;;;17.15;10.80;;;15.00;99.90;;;;;;5011909;28;20033;-45
2021/07/20 02:36:49;;;;;;;16.35;10.18;;;14.90;99.90;;;;;;5018410;28;20024;-44
2021/07/20 02:39:16;;;;;;;19.52;11.80;;;14.90;99.90;;;;;;5014860;28;20022;-45
2021/07/20 02:41:42;;;;;;;20.23;11.82;;;14.90;99.90;;;;;;5014987;28;20028;-45
2021/07/20 02:44:08;;;;;;;16.50;11.10;;;14.90;99.90;;;;;;5016179;28;20026;-45
2021/07/20 02:46:36;;;;;;;17.15;10.93;;;14.80;99.90;;;;;;5012831;28;20030;-46
2021/07/20 02:49:02;;;;;;;16.08;10.50;;;14.90;99.90;;;;;;5019053;28;20022;-45
2021/07/20 02:51:28;;;;;;;17.88;11.35;;;14.90;99.90;;;;;;5011230;28;20022;-45
2021/07/20 02:53:57;;;;;;;16.63;10.75;;;14.90;99.90;;;;;;5021107;28;20025;-45
2021/07/20 02:56:24;;;;;;;18.67;11.35;;;14.90;99.90;;;;;;5010412;28;20018;-48
2021/07/20 02:58:53;;;;;;;15.40;10.30;;;14.90;99.90;;;;;;5021194;28;20017;-46
2021/07/20 03:01:21;;;;;;;16.88;10.65;;;14.90;99.90;;;;;;5011073;28;20033;-45
2021/07/20 03:03:47;;;;;;;18.25;11.45;;;15.00;99.90;;;;;;5019204;28;20125;-43
2021/07/20 03:06:13;;;;;;;16.13;11.00;;;14.90;99.90;;;;;;5009947;28;20467;-45
2021/07/20 03:08:41;;;;;;;16.85;11.30;;;14.90;99.90;;;;;;5020694;28;20105;-46
2021/07/20 03:11:12;;;;;;;18.20;11.45;;;14.90;99.90;;;;;;5009691;28;20026;-46
2021/07/20 03:13:41;;;;;;;19.00;11.30;;;14.80;99.90;;;;;;5021140;28;20401;-45
2021/07/20 03:16:09;;;;;;;17.55;11.10;;;14.70;99.90;;;;;;5010310;28;20022;-45
2021/07/20 03:18:37;;;;;;;16.42;10.57;;;14.70;99.90;;;;;;5020014;28;20022;-45
2021/07/20 03:21:04;;;;;;;17.50;11.45;;;14.70;99.90;;;;;;5010663;28;20466;-44
2021/07/20 03:23:30;;;;;;;18.83;12.15;;;14.60;99.90;;;;;;5018228;28;20544;-44
2021/07/20 03:26:01;;;;;;;15.90;10.43;;;14.60;99.90;;;;;;5013118;28;20030;-44
2021/07/20 03:28:28;;;;;;;19.20;11.57;;;14.50;99.90;;;;;;5016429;28;20100;-45
2021/07/20 03:30:55;;;;;;;18.10;11.02;;;14.50;99.90;;;;;;5013969;28;20029;-44
2021/07/20 03:33:25;;;;;;;18.98;11.85;;;14.50;99.90;;;;;;5014177;28;20424;-46
2021/07/20 03:35:56;;;;;;;20.05;11.57;;;14.40;99.90;;;;;;5016497;28;20014;-45
2021/07/20 03:38:23;;;;;;;19.65;11.82;;;14.40;99.90;;;;;;5012740;28;20022;-44
2021/07/20 03:40:51;;;;;;;20.02;12.43;;;14.40;99.90;;;;;;5017907;28;20037;-45
2021/07/20 03:43:22;;;;;;;18.38;11.40;;;14.30;99.90;;;;;;5010795;28;20030;-44
2021/07/20 03:45:48;;;;;;;19.92;11.52;;;14.30;99.90;;;;;;5019088;28;20034;-46
2021/07/20 03:48:14;;;;;;;16.52;10.95;;;14.30;99.90;;;;;;5011025;28;20028;-45
2021/07/20 03:50:47;;;;;;;18.70;11.45;;;14.20;99.90;;;;;;5019753;28;20030;-45
2021/07/20 03:53:13;;;;;;;20.65;11.90;;;14.20;99.90;;;;;;5010724;28;20034;-45
2021/07/20 03:55:50;;;;;;;20.85;11.95;;;14.10;99.90;;;;;;5020735;28;20017;-44
2021/07/20 03:58:17;;;;;;;22.10;11.63;;;14.10;99.90;;;;;;5015011;28;20022;-45
2021/07/20 04:00:47;;;;;;;19.17;10.98;;;14.10;99.90;;;;;;5023398;28;20026;-44
2021/07/20 04:03:26;;;;;;;17.88;11.25;;;14.10;99.90;;;;;;5013570;28;20053;-45
2021/07/20 04:05:59;;;;;;;17.60;10.95;;;14.00;99.90;;;;;;5020505;28;20381;-45
2021/07/20 04:08:30;;;;;;;21.05;11.73;;;14.00;99.90;;;;;;5031869;28;20530;-45
2021/07/20 04:10:56;;;;;;;18.88;11.57;;;14.00;99.90;;;;;;5025762;28;20360;-44
2021/07/20 04:13:22;;;;;;;18.05;11.32;;;14.00;99.90;;;;;;5012712;28;20045;-45
2021/07/20 04:16:00;;;;;;;18.42;11.55;;;14.00;99.90;;;;;;5025387;28;20468;-45
2021/07/20 04:18:27;;;;;;;19.05;11.35;;;14.00;99.90;;;;;;5012881;28;20033;-46
2021/07/20 04:20:52;;;;;;;21.33;11.45;;;13.90;99.90;;;;;;5023864;28;20392;-44
2021/07/20 04:23:20;;;;;;;23.27;11.45;;;13.90;99.90;;;;;;5013265;28;20018;-45
2021/07/20 04:25:47;;;;;;;16.98;10.63;;;13.90;99.90;;;;;;5023270;28;20121;-45
2021/07/20 04:28:14;;;;;;;18.33;11.77;;;13.90;99.90;;;;;;5014307;28;20021;-45
2021/07/20 04:30:47;;;;;;;20.20;11.70;;;13.90;99.90;;;;;;5020642;28;20033;-45
2021/07/20 04:33:32;;;;;;;20.75;11.57;;;14.00;99.90;;;;;;5015481;28;20069;-46
2021/07/20 04:36:02;;;;;;;16.65;11.05;;;14.00;99.90;;;;;;5022042;28;20377;-46
2021/07/20 04:38:31;;;;;;;17.42;11.07;;;14.00;99.90;;;;;;5014869;28;20080;-45
2021/07/20 04:40:57;;;;;;;18.13;10.68;;;14.00;99.90;;;;;;5020269;28;20014;-46
2021/07/20 04:43:23;;;;;;;18.08;10.82;;;14.00;99.90;;;;;;5016131;28;20502;-46
2021/07/20 04:45:52;;;;;;;18.10;11.27;;;14.10;99.90;;;;;;5017652;28;20112;-46
2021/07/20 04:48:17;;;;;;;18.00;10.32;;;14.10;99.90;;;;;;5018858;28;20022;-46
2021/07/20 04:50:44;;;;;;;14.73;10.10;;;14.10;99.90;;;;;;5015392;28;20021;-45
2021/07/20 04:53:12;;;;;;;16.05;10.85;;;14.10;99.90;;;;;;5021987;28;20232;-45
2021/07/20 04:55:40;;;;;;;14.50;10.05;;;14.20;99.90;;;;;;5012890;28;20112;-45
2021/07/20 04:58:08;;;;;;;16.75;10.82;;;14.20;99.90;;;;;;5023568;28;20026;-45
2021/07/20 05:00:37;;;;;;;18.65;10.43;;;14.20;99.90;;;;;;5012776;28;20033;-46
2021/07/20 05:03:05;;;;;;;16.70;10.35;;;14.30;99.90;;;;;;5022706;28;20383;-45
2021/07/20 05:05:37;;;;;;;16.40;9.88;;;14.30;99.90;;;;;;5012827;28;20164;-44
2021/07/20 05:08:02;;;;;;;15.35;9.75;;;14.30;99.90;;;;;;5019343;28;20438;-46
2021/07/20 05:10:28;;;;;;;15.43;9.70;;;14.40;99.90;;;;;;5028002;28;20060;-44
2021/07/20 05:12:54;;;;;;;16.80;9.63;;;14.40;99.90;;;;;;5019633;28;20010;-45
2021/07/20 05:15:20;;;;;;;14.40;9.73;;;14.40;99.90;;;;;;5032001;28;20470;-46
2021/07/20 05:17:49;;;;;;;17.83;9.40;;;14.50;99.90;;;;;;5018482;28;20018;-45
2021/07/20 05:20:18;;;;;;;15.77;9.85;;;14.50;99.90;;;;;;5031843;28;20171;-45
2021/07/20 05:22:45;;;;;;;14.45;9.30;;;14.50;99.90;;;;;;5020492;28;20030;-45
2021/07/20 05:25:12;;;;;;;17.95;9.50;;;14.60;99.90;;;;;;5030395;28;20065;-46
2021/07/20 05:27:42;;;;;;;13.48;8.95;;;14.60;99.90;;;;;;5022081;28;20054;-44
2021/07/20 05:30:08;;;;;;;13.00;8.80;;;14.70;99.90;;;;;;5028443;28;20087;-46
2021/07/20 05:32:42;;;;;;;13.65;8.57;;;14.70;99.90;;;;;;5023630;28;20014;-43
2021/07/20 05:35:10;;;;;;;13.90;9.15;;;14.70;99.90;;;;;;5027421;28;20025;-44
2021/07/20 05:37:37;;;;;;;14.35;8.52;;;14.80;99.90;;;;;;5024304;28;20486;-45
2021/07/20 05:40:09;;;;;;;12.05;8.23;;;14.80;99.90;;;;;;5024036;28;20041;-46
2021/07/20 05:42:42;;;;;;;13.88;7.75;;;14.90;99.90;;;;;;5026929;28;20062;-43
2021/07/20 05:45:08;;;;;;;12.15;7.88;;;14.90;99.90;;;;;;5023699;28;20037;-45
2021/07/20 05:47:49;;;;;;;12.73;7.80;;;15.00;99.90;;;;;;5027647;28;20495;-45
2021/07/20 05:50:16;;;;;;;10.65;7.15;;;15.10;99.90;;;;;;5024046;28;20040;-46
2021/07/20 05:52:44;;;;;;;12.10;7.60;;;15.10;99.90;;;;;;5027524;28;20029;-45
2021/07/20 05:55:10;;;;;;;11.52;7.13;;;15.10;99.90;;;;;;5019006;28;20112;-43
2021/07/20 05:57:38;;;;;;;10.95;7.68;;;15.20;99.90;;;;;;4996253;28;20449;-46
2021/07/20 06:00:24;;;;;;;9.40;6.43;;;15.20;99.90;;;;;;5021816;28;20022;-46
2021/07/20 06:02:52;;;;;;;8.35;6.85;;;15.30;99.90;;;;;;5010937;28;20121;-46
2021/07/20 06:05:23;;;;;;;9.32;6.80;;;15.40;99.90;;;;;;5021847;28;20042;-45
2021/07/20 06:07:49;;;;;;;11.07;6.80;;;15.40;99.90;;;;;;5012652;28;20045;-45
2021/07/20 06:10:19;;;;;;;8.05;6.40;;;15.50;99.90;;;;;;5013938;28;20030;-45
2021/07/20 06:12:45;;;;;;;8.85;6.75;;;15.50;99.90;;;;;;5010634;28;20676;-46
2021/07/20 06:15:17;;;;;;;10.73;6.53;;;15.60;99.90;;;;;;5019296;28;20018;-45
2021/07/20 06:17:43;;;;;;;9.98;6.90;;;15.70;99.90;;;;;;5029757;28;20025;-46
2021/07/20 06:20:09;;;;;;;8.82;6.30;;;15.70;99.90;;;;;;5017027;28;20038;-46
2021/07/20 06:22:41;;;;;;;8.70;6.63;;;15.80;99.90;;;;;;5029640;28;20025;-45
2021/07/20 06:25:07;;;;;;;9.18;6.38;;;15.90;99.90;;;;;;5018313;28;20036;-45
2021/07/20 06:27:35;;;;;;;8.00;6.43;;;15.90;99.70;;;;;;5029444;28;20401;-45
2021/07/20 06:30:03;;;;;;;10.48;7.00;;;15.90;99.90;;;;;;5017598;28;20514;-46
2021/07/20 06:32:30;;;;;;;9.65;6.90;;;15.90;99.60;;;;;;5028952;28;20033;-45
2021/07/20 06:34:56;;;;;;;9.43;6.80;;;16.00;99.40;;;;;;5017639;28;20022;-46
2021/07/20 06:37:25;;;;;;;8.68;6.82;;;16.10;99.40;;;;;;5023313;28;20026;-46
2021/07/20 06:39:51;;;;;;;8.43;6.50;;;16.10;99.30;;;;;;5008417;28;20092;-46
2021/07/20 06:42:17;;;;;;;8.73;6.03;;;16.10;99.30;;;;;;5003098;28;20037;-44
2021/07/20 06:44:44;;;;;;;15.68;6.90;;;16.10;99.30;;;;;;5007750;28;20362;-46
2021/07/20 06:47:16;;;;;;;14.73;6.82;;;16.20;99.30;;;;;;5016564;28;20021;-44
2021/07/20 06:49:46;;;;;;;9.05;6.32;;;16.20;99.30;;;;;;5011880;28;20026;-43
2021/07/20 06:52:14;;;;;;;7.95;5.90;;;16.30;99.30;;;;;;5017604;28;20033;-43
2021/07/20 06:54:39;;;;;;;9.93;6.65;;;16.30;99.30;;;;;;5009444;28;20379;-46
2021/07/20 06:57:06;;;;;;;11.25;6.78;;;16.30;99.30;;;;;;5020044;28;20029;-45
2021/07/20 06:59:36;;;;;;;9.52;6.55;;;16.30;99.30;;;;;;5009553;28;20054;-45
2021/07/20 07:02:02;;;;;;;9.77;6.78;;;16.40;99.30;;;;;;5020567;28;20076;-44
2021/07/20 07:04:43;;;;;;;9.63;7.25;;;16.40;99.20;;;;;;5008260;28;20034;-43
2021/07/20 07:07:10;;;;;;;10.82;7.53;;;16.50;99.20;;;;;;5019224;28;20049;-45
2021/07/20 07:09:36;;;;;;;13.65;8.27;;;16.50;99.00;;;;;;5016113;28;20026;-44
2021/07/20 07:12:02;;;;;;;9.77;7.55;;;16.60;98.90;;;;;;5017576;28;20032;-42
2021/07/20 07:14:30;;;;;;;9.98;7.70;;;16.60;98.90;;;;;;5028681;28;20029;-45
2021/07/20 07:16:56;;;;;;;9.82;7.18;;;16.60;98.80;;;;;;5015816;28;20465;-44
2021/07/20 07:19:23;;;;;;;10.10;6.80;;;16.70;98.80;;;;;;5029269;28;20105;-43
2021/07/20 07:21:50;;;;;;;9.65;7.45;;;16.70;99.10;;;;;;5016969;28;20026;-48
2021/07/20 07:24:16;;;;;;;9.80;7.32;;;16.70;98.70;;;;;;5028675;28;20060;-44
2021/07/20 07:26:43;;;;;;;10.88;7.65;;;16.80;98.60;;;;;;5016069;28;20120;-45
2021/07/20 07:29:10;;;;;;;10.52;7.03;;;16.80;98.40;;;;;;5011911;28;20040;-45
2021/07/20 07:31:36;;;;;;;11.70;7.55;;;16.90;98.40;;;;;;5016035;28;20374;-48
2021/07/20 07:34:03;;;;;;;10.25;8.00;;;16.90;98.40;;;;;;5013616;28;20084;-48
2021/07/20 07:36:29;;;;;;;9.52;7.25;;;17.00;98.30;;;;;;5006048;28;20007;-45
2021/07/20 07:38:56;;;;;;;9.57;6.85;;;17.00;98.30;;;;;;5015542;28;20025;-47
2021/07/20 07:41:23;;;;;;;16.17;7.45;;;17.00;98.20;;;;;;5013225;28;20022;-42
2021/07/20 07:43:50;;;;;;;10.48;6.93;;;17.10;98.10;;;;;;5018932;28;20018;-48
2021/07/20 07:46:17;;;;;;;12.90;8.18;;;17.20;98.10;;;;;;5002700;28;20038;-47
2021/07/20 07:48:43;;;;;;;10.90;8.15;;;17.30;97.70;;;;;;5002758;28;20018;-48
2021/07/20 07:51:10;;;;;;;10.57;7.65;;;17.30;97.20;;;;;;4998091;28;20019;-46
2021/07/20 07:53:36;;;;;;;11.63;8.00;;;17.40;96.80;;;;;;5020443;28;20021;-47
2021/07/20 07:56:04;;;;;;;9.60;7.60;;;17.40;96.60;;;;;;5009129;28;20018;-45
2021/07/20 07:58:30;;;;;;;11.82;7.65;;;17.40;96.20;;;;;;5019888;28;20034;-42
2021/07/20 08:01:01;;;;;;;10.02;7.10;;;17.40;96.10;;;;;;5000691;28;20072;-47
2021/07/20 08:03:29;;;;;;;10.38;7.55;;;17.50;96.20;;;;;;5020520;28;20053;-48
2021/07/20 08:05:57;;;;;;;9.50;7.30;;;17.50;96.20;;;;;;5008461;28;20048;-48
2021/07/20 08:08:24;;;;;;;9.68;7.38;;;17.50;96.20;;;;;;5020486;28;20087;-47
2021/07/20 08:10:51;;;;;;;9.50;7.03;;;17.50;96.20;;;;;;5026014;28;20369;-44
2021/07/20 08:13:18;;;;;;;9.73;7.47;;;17.60;96.10;;;;;;5017919;28;20022;-47
2021/07/20 08:15:49;;;;;;;8.85;6.85;;;17.60;95.80;;;;;;5026094;28;20033;-43
2021/07/20 08:18:15;;;;;;;9.13;6.88;;;17.70;95.90;;;;;;5020300;28;20022;-47
2021/07/20 08:20:42;;;;;;;12.50;7.45;;;17.70;95.70;;;;;;5023800;28;20404;-45
2021/07/20 08:23:07;;;;;;;8.95;6.88;;;17.70;95.60;;;;;;5021933;28;20029;-48
2021/07/20 08:25:42;;;;;;;9.98;7.95;;;17.70;95.50;;;;;;5021710;28;20041;-47
2021/07/20 08:28:10;;;;;;;9.10;7.07;;;17.70;95.40;;;;;;5023402;28;20492;-48
2021/07/20 08:30:41;;;;;;;7.93;6.65;;;17.80;95.50;;;;;;5020311;28;20116;-47
2021/07/20 08:33:12;;;;;;;8.00;6.80;;;17.90;95.60;;;;;;5024847;28;20548;-47
2021/07/20 08:35:40;;;;;;;9.13;7.00;;;17.90;95.50;;;;;;5019694;28;20022;-47
2021/07/20 08:38:12;;;;;;;9.57;7.47;;;17.90;95.40;;;;;;5026663;28;20025;-47
2021/07/20 08:40:49;;;;;;;10.35;8.20;;;18.00;95.30;;;;;;5007278;28;20021;-48
2021/07/20 08:43:49;;;;;;;8.95;6.97;;;18.10;95.20;;;;;;5030794;28;20069;-46
2021/07/20 08:46:33;;;;;;;10.15;7.07;;;18.20;95.30;;;;;;5019619;28;20567;-46
2021/07/20 08:49:25;;;;;;;8.60;6.53;;;18.30;95.20;;;;;;5025351;28;20121;-45
2021/07/20 08:52:05;;;;;;;9.07;6.93;;;18.50;95.00;;;;;;5028712;28;20083;-47
2021/07/20 08:54:54;;;;;;;9.00;6.97;;;18.60;95.00;;;;;;5022167;28;20620;-47
2021/07/20 08:57:45;;;;;;;9.88;6.85;;;18.70;94.70;;;;;;5031306;28;20025;-46
2021/07/20 09:00:15;;;;;;;9.45;7.28;;;18.70;94.50;;;;;;5017025;28;20109;-45
2021/07/20 09:03:02;;;;;;;10.07;7.07;;;18.70;94.30;;;;;;5030675;28;20492;-45
2021/07/20 09:05:34;;;;;;;9.05;6.80;;;18.80;94.40;;;;;;5018316;28;20077;-46
2021/07/20 09:08:03;;;;;;;10.82;7.07;;;18.80;94.30;;;;;;5032167;28;20028;-45
2021/07/20 09:10:38;;;;;;;9.40;7.20;;;18.80;94.30;;;;;;5018359;28;20487;-44
2021/07/20 09:13:11;;;;;;;8.88;6.75;;;18.90;94.40;;;;;;5030691;28;20148;-46
2021/07/20 09:15:42;;;;;;;9.57;6.32;;;18.90;94.40;;;;;;5018340;28;20032;-47
2021/07/20 09:18:24;;;;;;;9.32;6.57;;;18.90;94.40;;;;;;4991696;28;20109;-45
2021/07/20 09:20:55;;;;;;;8.30;6.55;;;18.90;94.30;;;;;;5002036;28;20083;-46
2021/07/20 09:23:54;;;;;;;9.23;6.55;;;18.90;94.30;;;;;;4994330;28;20022;-44
2021/07/20 09:26:23;;;;;;;7.05;5.95;;;19.00;94.40;;;;;;4998702;28;20045;-46
2021/07/20 09:29:03;;;;;;;7.90;6.30;;;19.00;94.40;;;;;;5010107;28;20168;-44
2021/07/20 09:32:10;;;;;;;10.90;6.50;;;19.10;94.30;;;;;;5008810;28;20482;-44
2021/07/20 09:34:58;;;;;;;9.57;6.75;;;19.30;94.10;;;;;;5029425;28;20104;-45
2021/07/20 09:37:33;;;;;;;9.32;6.65;;;19.30;94.00;;;;;;5019375;28;20033;-46
2021/07/20 09:40:20;;;;;;;8.95;6.95;;;19.40;94.00;;;;;;5018801;28;20018;-44
2021/07/20 09:43:01;;;;;;;9.27;7.00;;;19.50;93.80;;;;;;5011662;28;20028;-47
2021/07/20 09:45:32;;;;;;;7.80;6.50;;;19.50;93.90;;;;;;5016623;28;20026;-46
2021/07/20 09:48:02;;;;;;;9.77;6.70;;;19.50;93.90;;;;;;5020959;28;20128;-41
2021/07/20 09:50:34;;;;;;;10.50;6.57;;;19.60;93.90;;;;;;5029022;28;20067;-46
2021/07/20 09:53:33;;;;;;;9.93;6.25;;;19.60;93.90;;;;;;5002274;28;20030;-45
2021/07/20 09:56:16;;;;;;;9.73;6.32;;;19.70;94.00;;;;;;4999367;28;20470;-46
2021/07/20 09:58:56;;;;;;;10.57;6.63;;;19.80;94.20;;;;;;5023469;28;20031;-46
2021/07/20 10:01:36;;;;;;;10.40;6.55;;;19.90;94.00;;;;;;5019729;28;20025;-42
2021/07/20 10:04:05;;;;;;;8.52;6.80;;;20.00;94.00;;;;;;5020669;28;20140;-43
2021/07/20 10:06:52;;;;;;;9.75;6.60;;;20.00;93.90;;;;;;5013973;28;20048;-45
2021/07/20 10:09:32;;;;;;;7.88;6.10;;;20.10;93.80;;;;;;5020563;28;20058;-45
2021/07/20 10:12:02;;;;;;;8.00;6.35;;;20.10;93.80;;;;;;5008442;28;20070;-42
2021/07/20 10:14:27;;;;;;;9.05;6.30;;;20.20;93.80;;;;;;5025829;28;20057;-44
2021/07/20 10:17:05;;;;;;;8.82;6.70;;;20.30;93.80;;;;;;4999143;28;20528;-43
2021/07/20 10:19:53;;;;;;;7.45;6.00;;;20.40;93.70;;;;;;5012755;28;20034;-43
2021/07/20 10:22:26;;;;;;;8.48;6.57;;;20.50;93.70;;;;;;5017574;28;20033;-46
2021/07/20 10:25:06;;;;;;;8.80;6.18;;;20.60;93.60;;;;;;5014422;28;20359;-46
2021/07/20 10:27:42;;;;;;;9.98;6.68;;;20.70;93.60;;;;;;5016302;28;20030;-45
2021/07/20 10:30:13;;;;;;;8.63;6.22;;;20.80;93.40;;;;;;5012383;28;20409;-46
2021/07/20 10:33:01;;;;;;;9.52;6.90;;;20.80;93.10;;;;;;5016752;28;20448;-44
2021/07/20 10:35:42;;;;;;;9.23;6.70;;;20.80;93.10;;;;;;5010472;28;20037;-46
2021/07/20 10:38:11;;;;;;;7.30;6.20;;;20.90;92.90;;;;;;5020449;28;20360;-47
2021/07/20 10:40:38;;;;;;;9.40;6.85;;;20.90;92.80;;;;;;5011300;28;20057;-47
2021/07/20 10:43:08;;;;;;;9.60;7.03;;;21.10;92.70;;;;;;5018515;28;20025;-45
2021/07/20 10:45:36;;;;;;;9.43;7.18;;;21.20;92.60;;;;;;5026752;28;20523;-43
2021/07/20 10:48:09;;;;;;;8.90;6.68;;;21.20;92.40;;;;;;5023916;28;20039;-43
2021/07/20 10:51:06;;;;;;;9.57;7.35;;;21.20;92.50;;;;;;5013956;28;20492;-46
2021/07/20 10:53:50;;;;;;;8.90;6.97;;;21.30;92.60;;;;;;5018141;28;20044;-46
2021/07/20 10:56:40;;;;;;;7.97;5.95;;;21.40;92.50;;;;;;5011528;28;20033;-44
2021/07/20 10:59:25;;;;;;;7.78;6.20;;;21.40;92.50;;;;;;5022019;28;20040;-44
2021/07/20 11:02:02;;;;;;;8.80;6.75;;;21.40;92.40;;;;;;4989805;28;20504;-45
2021/07/20 11:04:58;;;;;;;7.68;6.10;;;21.40;92.40;;;;;;5017280;28;20102;-46
2021/07/20 11:07:27;;;;;;;9.48;6.78;;;21.40;92.20;;;;;;5004101;28;20089;-43
2021/07/20 11:09:54;;;;;;;10.32;6.72;;;21.40;92.10;;;;;;5016912;28;20048;-46
2021/07/20 11:12:24;;;;;;;8.18;6.93;;;21.50;92.10;;;;;;5009225;28;20036;-44
2021/07/20 11:14:51;;;;;;;9.63;7.28;;;21.60;92.10;;;;;;5008438;28;20026;-45
2021/07/20 11:17:19;;;;;;;9.85;6.57;;;21.60;91.70;;;;;;5016044;28;20061;-46
2021/07/20 11:19:48;;;;;;;9.93;7.15;;;21.70;91.70;;;;;;5005533;28;20021;-45
2021/07/20 11:22:15;;;;;;;7.85;6.53;;;21.70;91.20;;;;;;5028278;28;20695;-44
2021/07/20 11:24:42;;;;;;;7.85;5.78;;;21.70;91.00;;;;;;5018354;28;20068;-46
2021/07/20 11:27:09;;;;;;;7.75;6.55;;;21.70;91.20;;;;;;5025991;28;20018;-44
2021/07/20 11:29:35;;;;;;;8.30;6.38;;;21.60;91.20;;;;;;5019245;28;20036;-48
2021/07/20 11:32:04;;;;;;;7.28;6.35;;;21.60;91.30;;;;;;5023998;28;20018;-43
2021/07/20 11:34:33;;;;;;;8.60;7.00;;;21.60;91.40;;;;;;5021910;28;20060;-45
2021/07/20 11:37:08;;;;;;;8.02;6.72;;;21.50;91.00;;;;;;5020746;28;20030;-46
2021/07/20 11:39:43;;;;;;;13.68;8.30;;;21.50;91.00;;;;;;5021075;28;20029;-45
2021/07/20 11:42:22;;;;;;;10.55;7.05;;;21.50;89.90;;;;;;5015557;28;20121;-47
2021/07/20 11:45:09;;;;;;;10.02;7.07;;;21.40;90.30;;;;;;5022789;28;20140;-46
2021/07/20 11:47:41;;;;;;;8.90;6.80;;;21.30;90.30;;;;;;5024218;28;20014;-45
2021/07/20 11:50:13;;;;;;;8.00;6.55;;;21.40;90.50;;;;;;5021032;28;20129;-46
2021/07/20 11:52:47;;;;;;;7.82;6.40;;;21.50;90.60;;;;;;5023379;28;20168;-46
2021/07/20 11:55:40;;;;;;;6.65;5.50;;;21.70;91.00;;;;;;5023203;28;20014;-46
2021/07/20 11:58:27;;;;;;;9.55;7.00;;;21.80;90.70;;;;;;5025115;28;20513;-47
2021/07/20 12:01:34;;;;;;;9.80;7.03;;;21.80;90.30;;;;;;5018216;28;20033;-45
2021/07/20 12:04:29;;;;;;;8.30;6.82;;;21.70;89.70;;;;;;4988486;28;20105;-45
2021/07/20 12:07:09;;;;;;;9.30;7.22;;;21.60;90.10;;;;;;5016626;28;20472;-47
2021/07/20 12:10:13;;;;;;;10.25;7.57;;;21.70;90.00;;;;;;5023291;28;20121;-46
2021/07/20 12:12:47;;;;;;;12.55;7.97;;;21.80;90.00;;;;;;5006639;28;20056;-46
2021/07/20 12:15:18;;;;;;;9.70;7.55;;;21.80;89.70;;;;;;5026134;28;20470;-45
2021/07/20 12:17:44;;;;;;;10.77;7.32;;;21.90;90.00;;;;;;5020581;28;20108;-46
2021/07/20 12:20:12;;;;;;;10.13;7.55;;;21.90;89.90;;;;;;5030912;28;20105;-46
2021/07/20 12:22:41;;;;;;;9.73;8.10;;;21.90;89.30;;;;;;5021365;28;20104;-46
2021/07/20 12:25:09;;;;;;;11.88;8.50;;;21.90;89.10;;;;;;5032015;28;20041;-46
2021/07/20 12:27:39;;;;;;;11.30;8.32;;;21.80;88.20;;;;;;5018905;28;20041;-46
2021/07/20 12:30:07;;;;;;;8.68;7.43;;;21.80;88.60;;;;;;5032828;28;20079;-46
2021/07/20 12:32:34;;;;;;;10.93;7.88;;;21.90;88.50;;;;;;5018404;28;20591;-46
2021/07/20 12:35:01;;;;;;;10.10;7.88;;;21.90;88.20;;;;;;5032682;28;20437;-44
2021/07/20 12:37:26;;;;;;;8.88;7.68;;;21.80;87.90;;;;;;5018994;28;20033;-46
2021/07/20 12:39:56;;;;;;;9.73;7.47;;;21.90;88.30;;;;;;5031860;28;20041;-44
2021/07/20 12:42:23;;;;;;;10.30;8.05;;;21.90;87.90;;;;;;5020979;28;20030;-45
2021/07/20 12:45:12;;;;;;;10.63;8.43;;;21.90;88.00;;;;;;5031105;28;20116;-43
2021/07/20 12:47:43;;;;;;;11.95;8.50;;;22.00;87.80;;;;;;5019837;28;20076;-46
2021/07/20 12:50:12;;;;;;;8.82;7.88;;;22.10;87.90;;;;;;5032342;28;20025;-43
2021/07/20 12:52:41;;;;;;;10.68;8.35;;;22.10;87.70;;;;;;5021565;28;20025;-45
2021/07/20 12:55:21;;;;;;;10.73;8.35;;;22.10;87.60;;;;;;5030185;28;20022;-43
2021/07/20 12:57:55;;;;;;;11.70;8.50;;;22.00;87.00;;;;;;5022048;28;20093;-46
2021/07/20 13:00:26;;;;;;;12.25;8.93;;;21.90;87.10;;;;;;5029986;28;20034;-47
2021/07/20 13:02:56;;;;;;;11.65;9.32;;;21.80;86.70;;;;;;5022422;28;20116;-46